sensor_id;sensor_type;location;lat;lon;timestamp;pressure;altitude;pressure_sealevel;temperature;humidity
5691;BME280;2870;42.680;23.364;2023-01-26T00:01:52;95612.84;;;0.98;85.44
5691;BME280;2870;42.680;23.364;2023-01-26T00:04:19;95621.69;;;1.02;85.34
5691;BME280;2870;42.680;23.364;2023-01-26T00:06:46;95627.19;;;0.62;85.96
5691;BME280;2870;42.680;23.364;2023-01-26T00:09:13;95629.97;;;0.82;85.96
5691;BME280;2870;42.680;23.364;2023-01-26T00:11:40;95629.59;;;0.95;85.50
5691;BME280;2870;42.680;23.364;2023-01-26T00:14:07;95620.91;;;1.02;84.51
5691;BME280;2870;42.680;23.364;2023-01-26T00:16:35;95623.53;;;0.91;84.82
5691;BME280;2870;42.680;23.364;2023-01-26T00:19:02;95635.81;;;1.10;84.70
5691;BME280;2870;42.680;23.364;2023-01-26T00:21:29;95632.84;;;0.93;84.71
5691;BME280;2870;42.680;23.364;2023-01-26T00:23:57;95638.19;;;0.97;84.27
5691;BME280;2870;42.680;23.364;2023-01-26T00:26:25;95633.34;;;0.71;84.82
5691;BME280;2870;42.680;23.364;2023-01-26T00:28:53;95636.72;;;0.81;84.41
5691;BME280;2870;42.680;23.364;2023-01-26T00:31:22;95624.69;;;0.84;83.98
5691;BME280;2870;42.680;23.364;2023-01-26T00:33:52;95612.50;;;0.70;84.94
5691;BME280;2870;42.680;23.364;2023-01-26T00:36:19;95606.28;;;0.75;84.48
5691;BME280;2870;42.680;23.364;2023-01-26T00:38:46;95593.97;;;0.56;85.00
5691;BME280;2870;42.680;23.364;2023-01-26T00:41:13;95595.28;;;1.01;84.08
5691;BME280;2870;42.680;23.364;2023-01-26T00:43:53;95596.38;;;1.10;83.10
5691;BME280;2870;42.680;23.364;2023-01-26T00:46:20;95591.50;;;0.99;83.02
5691;BME280;2870;42.680;23.364;2023-01-26T00:48:47;95595.47;;;1.18;82.74
5691;BME280;2870;42.680;23.364;2023-01-26T00:51:16;95597.53;;;1.23;82.82
5691;BME280;2870;42.680;23.364;2023-01-26T00:53:42;95597.13;;;1.30;82.41
5691;BME280;2870;42.680;23.364;2023-01-26T00:56:09;95590.03;;;1.03;83.03
5691;BME280;2870;42.680;23.364;2023-01-26T00:58:36;95584.59;;;0.89;83.06
5691;BME280;2870;42.680;23.364;2023-01-26T01:01:04;95580.88;;;0.71;83.71
5691;BME280;2870;42.680;23.364;2023-01-26T01:03:32;95581.63;;;0.72;83.76
5691;BME280;2870;42.680;23.364;2023-01-26T01:05:59;95589.09;;;0.66;83.73
5691;BME280;2870;42.680;23.364;2023-01-26T01:08:27;95566.78;;;0.90;82.85
5691;BME280;2870;42.680;23.364;2023-01-26T01:11:02;95578.88;;;0.92;82.74
5691;BME280;2870;42.680;23.364;2023-01-26T01:13:29;95577.88;;;0.95;82.62
5691;BME280;2870;42.680;23.364;2023-01-26T01:15:56;95560.84;;;0.76;82.34
5691;BME280;2870;42.680;23.364;2023-01-26T01:18:23;95577.88;;;0.95;81.99
5691;BME280;2870;42.680;23.364;2023-01-26T01:20:50;95567.94;;;0.83;82.09
5691;BME280;2870;42.680;23.364;2023-01-26T01:23:17;95565.19;;;0.83;82.75
5691;BME280;2870;42.680;23.364;2023-01-26T01:25:46;95561.13;;;0.78;82.51
5691;BME280;2870;42.680;23.364;2023-01-26T01:28:12;95568.06;;;0.94;81.69
5691;BME280;2870;42.680;23.364;2023-01-26T01:30:39;95565.06;;;0.72;82.58
5691;BME280;2870;42.680;23.364;2023-01-26T01:33:06;95571.97;;;0.62;82.66
5691;BME280;2870;42.680;23.364;2023-01-26T01:35:32;95563.94;;;0.84;82.12
5691;BME280;2870;42.680;23.364;2023-01-26T01:38:00;95556.72;;;0.87;81.58
5691;BME280;2870;42.680;23.364;2023-01-26T01:40:27;95563.88;;;0.99;81.20
5691;BME280;2870;42.680;23.364;2023-01-26T01:42:55;95563.19;;;0.84;81.71
5691;BME280;2870;42.680;23.364;2023-01-26T01:45:41;95568.91;;;1.00;80.89
5691;BME280;2870;42.680;23.364;2023-01-26T01:48:13;95572.88;;;1.20;80.44
5691;BME280;2870;42.680;23.364;2023-01-26T01:50:43;95562.22;;;0.87;79.81
5691;BME280;2870;42.680;23.364;2023-01-26T01:53:13;95555.03;;;0.95;80.04
5691;BME280;2870;42.680;23.364;2023-01-26T01:55:44;95565.94;;;0.84;80.86
5691;BME280;2870;42.680;23.364;2023-01-26T01:58:13;95555.00;;;0.69;81.38
5691;BME280;2870;42.680;23.364;2023-01-26T02:00:40;95561.59;;;0.77;81.11
5691;BME280;2870;42.680;23.364;2023-01-26T02:03:08;95551.28;;;0.51;81.49
5691;BME280;2870;42.680;23.364;2023-01-26T02:05:45;95547.28;;;0.52;81.40
5691;BME280;2870;42.680;23.364;2023-01-26T02:08:15;95547.19;;;0.47;81.49
5691;BME280;2870;42.680;23.364;2023-01-26T02:10:45;95539.66;;;0.27;81.68
5691;BME280;2870;42.680;23.364;2023-01-26T02:13:15;95531.66;;;0.29;81.96
5691;BME280;2870;42.680;23.364;2023-01-26T02:15:43;95531.25;;;0.36;82.19
5691;BME280;2870;42.680;23.364;2023-01-26T02:18:10;95524.44;;;0.52;82.23
5691;BME280;2870;42.680;23.364;2023-01-26T02:20:42;95518.00;;;0.61;81.37
5691;BME280;2870;42.680;23.364;2023-01-26T02:23:27;95511.91;;;0.57;81.45
5691;BME280;2870;42.680;23.364;2023-01-26T02:26:06;95505.63;;;0.56;81.84
5691;BME280;2870;42.680;23.364;2023-01-26T02:28:36;95507.38;;;0.53;81.50
5691;BME280;2870;42.680;23.364;2023-01-26T02:31:03;95501.22;;;0.44;81.99
5691;BME280;2870;42.680;23.364;2023-01-26T02:33:31;95493.56;;;0.53;81.89
5691;BME280;2870;42.680;23.364;2023-01-26T02:35:59;95499.91;;;0.60;82.03
5691;BME280;2870;42.680;23.364;2023-01-26T02:38:32;95496.94;;;0.63;82.29
5691;BME280;2870;42.680;23.364;2023-01-26T02:41:06;95494.06;;;0.98;81.20
5691;BME280;2870;42.680;23.364;2023-01-26T02:43:34;95492.88;;;0.59;81.97
5691;BME280;2870;42.680;23.364;2023-01-26T02:46:00;95500.47;;;0.43;82.61
5691;BME280;2870;42.680;23.364;2023-01-26T02:48:27;95492.13;;;0.58;82.40
5691;BME280;2870;42.680;23.364;2023-01-26T02:51:11;95492.47;;;0.45;82.69
5691;BME280;2870;42.680;23.364;2023-01-26T02:53:38;95487.09;;;0.16;83.31
5691;BME280;2870;42.680;23.364;2023-01-26T02:56:06;95481.47;;;0.51;83.02
5691;BME280;2870;42.680;23.364;2023-01-26T02:58:32;95480.53;;;0.54;82.68
5691;BME280;2870;42.680;23.364;2023-01-26T03:00:59;95474.81;;;0.37;83.04
5691;BME280;2870;42.680;23.364;2023-01-26T03:03:27;95470.19;;;0.49;82.86
5691;BME280;2870;42.680;23.364;2023-01-26T03:06:07;95471.28;;;0.57;82.83
5691;BME280;2870;42.680;23.364;2023-01-26T03:08:34;95465.72;;;0.51;82.45
5691;BME280;2870;42.680;23.364;2023-01-26T03:11:02;95452.41;;;0.30;82.44
5691;BME280;2870;42.680;23.364;2023-01-26T03:13:30;95473.44;;;0.27;83.26
5691;BME280;2870;42.680;23.364;2023-01-26T03:15:57;95464.63;;;0.23;83.50
5691;BME280;2870;42.680;23.364;2023-01-26T03:18:32;95460.94;;;0.32;83.17
5691;BME280;2870;42.680;23.364;2023-01-26T03:21:17;95430.28;;;0.04;83.45
5691;BME280;2870;42.680;23.364;2023-01-26T03:24:02;95449.78;;;0.41;83.34
5691;BME280;2870;42.680;23.364;2023-01-26T03:26:46;95442.00;;;0.19;83.40
5691;BME280;2870;42.680;23.364;2023-01-26T03:29:40;95445.53;;;0.45;83.06
5691;BME280;2870;42.680;23.364;2023-01-26T03:32:07;95440.00;;;0.40;82.65
5691;BME280;2870;42.680;23.364;2023-01-26T03:34:34;95440.09;;;0.51;82.57
5691;BME280;2870;42.680;23.364;2023-01-26T03:37:01;95433.72;;;0.65;81.87
5691;BME280;2870;42.680;23.364;2023-01-26T03:39:28;95434.78;;;0.47;82.31
5691;BME280;2870;42.680;23.364;2023-01-26T03:42:12;95433.91;;;0.36;82.47
5691;BME280;2870;42.680;23.364;2023-01-26T03:44:57;95431.66;;;0.34;82.23
5691;BME280;2870;42.680;23.364;2023-01-26T03:47:42;95428.84;;;0.55;82.43
5691;BME280;2870;42.680;23.364;2023-01-26T03:50:26;95426.22;;;0.45;82.42
5691;BME280;2870;42.680;23.364;2023-01-26T03:53:14;95419.75;;;0.48;83.05
5691;BME280;2870;42.680;23.364;2023-01-26T03:55:59;95416.31;;;0.33;84.09
5691;BME280;2870;42.680;23.364;2023-01-26T03:58:48;95420.59;;;0.34;84.27
5691;BME280;2870;42.680;23.364;2023-01-26T04:01:17;95424.72;;;0.44;83.57
5691;BME280;2870;42.680;23.364;2023-01-26T04:03:51;95413.03;;;0.29;83.84
5691;BME280;2870;42.680;23.364;2023-01-26T04:06:37;95412.28;;;0.55;83.18
5691;BME280;2870;42.680;23.364;2023-01-26T04:09:21;95396.72;;;0.31;83.99
5691;BME280;2870;42.680;23.364;2023-01-26T04:11:48;95405.13;;;0.42;83.72
5691;BME280;2870;42.680;23.364;2023-01-26T04:14:15;95402.75;;;0.56;82.63
5691;BME280;2870;42.680;23.364;2023-01-26T04:17:02;95404.56;;;0.38;83.42
5691;BME280;2870;42.680;23.364;2023-01-26T04:19:46;95387.25;;;0.38;83.44
5691;BME280;2870;42.680;23.364;2023-01-26T04:22:31;95388.25;;;0.61;82.41
5691;BME280;2870;42.680;23.364;2023-01-26T04:25:10;95381.84;;;0.49;83.11
5691;BME280;2870;42.680;23.364;2023-01-26T04:27:37;95375.34;;;0.26;83.23
5691;BME280;2870;42.680;23.364;2023-01-26T04:30:05;95365.03;;;0.47;83.38
5691;BME280;2870;42.680;23.364;2023-01-26T04:32:34;95370.53;;;0.21;83.68
5691;BME280;2870;42.680;23.364;2023-01-26T04:35:02;95373.16;;;0.30;84.05
5691;BME280;2870;42.680;23.364;2023-01-26T04:37:29;95365.09;;;0.52;83.27
5691;BME280;2870;42.680;23.364;2023-01-26T04:39:55;95373.25;;;0.41;83.24
5691;BME280;2870;42.680;23.364;2023-01-26T04:42:22;95369.69;;;0.35;83.93
5691;BME280;2870;42.680;23.364;2023-01-26T04:44:50;95369.50;;;0.44;82.99
5691;BME280;2870;42.680;23.364;2023-01-26T04:47:17;95379.44;;;0.10;84.04
5691;BME280;2870;42.680;23.364;2023-01-26T04:49:45;95374.59;;;0.25;84.21
5691;BME280;2870;42.680;23.364;2023-01-26T04:52:12;95371.78;;;0.20;83.75
5691;BME280;2870;42.680;23.364;2023-01-26T04:54:40;95370.94;;;0.34;83.80
5691;BME280;2870;42.680;23.364;2023-01-26T04:57:07;95366.50;;;0.42;82.90
5691;BME280;2870;42.680;23.364;2023-01-26T04:59:34;95378.69;;;0.10;83.56
5691;BME280;2870;42.680;23.364;2023-01-26T05:02:01;95376.22;;;0.38;83.50
5691;BME280;2870;42.680;23.364;2023-01-26T05:04:27;95377.63;;;0.28;83.58
5691;BME280;2870;42.680;23.364;2023-01-26T05:06:56;95381.06;;;0.22;83.81
5691;BME280;2870;42.680;23.364;2023-01-26T05:09:23;95374.50;;;0.40;83.12
5691;BME280;2870;42.680;23.364;2023-01-26T05:11:49;95364.09;;;0.56;82.47
5691;BME280;2870;42.680;23.364;2023-01-26T05:14:16;95366.69;;;0.65;82.26
5691;BME280;2870;42.680;23.364;2023-01-26T05:16:43;95365.94;;;0.38;83.05
5691;BME280;2870;42.680;23.364;2023-01-26T05:19:10;95368.25;;;0.40;82.81
5691;BME280;2870;42.680;23.364;2023-01-26T05:21:36;95365.81;;;0.79;81.20
5691;BME280;2870;42.680;23.364;2023-01-26T05:24:06;95369.22;;;0.63;81.54
5691;BME280;2870;42.680;23.364;2023-01-26T05:26:33;95371.63;;;0.81;81.08
5691;BME280;2870;42.680;23.364;2023-01-26T05:29:00;95362.97;;;0.99;80.51
5691;BME280;2870;42.680;23.364;2023-01-26T05:31:27;95355.75;;;0.76;80.52
5691;BME280;2870;42.680;23.364;2023-01-26T05:33:53;95360.34;;;0.85;80.58
5691;BME280;2870;42.680;23.364;2023-01-26T05:36:20;95355.66;;;0.96;80.54
5691;BME280;2870;42.680;23.364;2023-01-26T05:38:47;95355.16;;;0.66;81.11
5691;BME280;2870;42.680;23.364;2023-01-26T05:41:15;95351.56;;;0.55;80.93
5691;BME280;2870;42.680;23.364;2023-01-26T05:43:42;95325.28;;;0.65;80.24
5691;BME280;2870;42.680;23.364;2023-01-26T05:46:09;95352.09;;;0.59;81.37
5691;BME280;2870;42.680;23.364;2023-01-26T05:48:35;95349.53;;;0.55;81.55
5691;BME280;2870;42.680;23.364;2023-01-26T05:51:02;95356.38;;;0.60;81.24
5691;BME280;2870;42.680;23.364;2023-01-26T05:53:29;95357.63;;;0.59;80.60
5691;BME280;2870;42.680;23.364;2023-01-26T05:55:56;95361.53;;;0.46;81.39
5691;BME280;2870;42.680;23.364;2023-01-26T05:58:24;95360.63;;;0.61;81.12
5691;BME280;2870;42.680;23.364;2023-01-26T06:00:51;95356.63;;;0.62;81.16
5691;BME280;2870;42.680;23.364;2023-01-26T06:03:18;95354.66;;;0.68;80.41
5691;BME280;2870;42.680;23.364;2023-01-26T06:05:51;95360.38;;;0.59;80.56
5691;BME280;2870;42.680;23.364;2023-01-26T06:08:19;95346.78;;;0.55;81.16
5691;BME280;2870;42.680;23.364;2023-01-26T06:10:45;95350.41;;;0.67;81.22
5691;BME280;2870;42.680;23.364;2023-01-26T06:13:12;95360.78;;;0.77;80.71
5691;BME280;2870;42.680;23.364;2023-01-26T06:15:40;95354.63;;;0.62;80.99
5691;BME280;2870;42.680;23.364;2023-01-26T06:18:07;95350.69;;;0.69;80.83
5691;BME280;2870;42.680;23.364;2023-01-26T06:20:34;95341.59;;;0.94;80.00
5691;BME280;2870;42.680;23.364;2023-01-26T06:23:00;95352.47;;;1.03;79.82
5691;BME280;2870;42.680;23.364;2023-01-26T06:25:27;95341.00;;;0.85;80.53
5691;BME280;2870;42.680;23.364;2023-01-26T06:27:56;95340.13;;;0.99;80.38
5691;BME280;2870;42.680;23.364;2023-01-26T06:30:23;95343.59;;;0.94;81.13
5691;BME280;2870;42.680;23.364;2023-01-26T06:32:51;95331.13;;;1.04;80.25
5691;BME280;2870;42.680;23.364;2023-01-26T06:35:18;95323.13;;;1.12;79.96
5691;BME280;2870;42.680;23.364;2023-01-26T06:37:47;95332.03;;;1.27;79.49
5691;BME280;2870;42.680;23.364;2023-01-26T06:40:14;95326.19;;;1.19;79.43
5691;BME280;2870;42.680;23.364;2023-01-26T06:42:46;95331.41;;;1.12;80.46
5691;BME280;2870;42.680;23.364;2023-01-26T06:45:12;95328.97;;;1.19;79.49
5691;BME280;2870;42.680;23.364;2023-01-26T06:47:43;95331.63;;;1.02;80.30
5691;BME280;2870;42.680;23.364;2023-01-26T06:50:13;95332.84;;;1.01;80.75
5691;BME280;2870;42.680;23.364;2023-01-26T06:52:40;95332.63;;;1.05;80.13
5691;BME280;2870;42.680;23.364;2023-01-26T06:55:15;95335.78;;;1.29;79.88
5691;BME280;2870;42.680;23.364;2023-01-26T06:57:44;95325.41;;;1.19;79.92
5691;BME280;2870;42.680;23.364;2023-01-26T07:00:12;95328.13;;;1.50;81.38
5691;BME280;2870;42.680;23.364;2023-01-26T07:02:39;95314.22;;;1.33;80.84
5691;BME280;2870;42.680;23.364;2023-01-26T07:05:06;95319.56;;;1.48;80.15
5691;BME280;2870;42.680;23.364;2023-01-26T07:07:34;95322.03;;;1.41;80.00
5691;BME280;2870;42.680;23.364;2023-01-26T07:10:01;95312.63;;;1.21;80.31
5691;BME280;2870;42.680;23.364;2023-01-26T07:12:37;95309.44;;;1.34;79.72
5691;BME280;2870;42.680;23.364;2023-01-26T07:15:05;95303.84;;;1.23;80.40
5691;BME280;2870;42.680;23.364;2023-01-26T07:17:32;95300.28;;;1.17;80.63
5691;BME280;2870;42.680;23.364;2023-01-26T07:19:59;95309.22;;;1.00;81.81
5691;BME280;2870;42.680;23.364;2023-01-26T07:22:26;95312.38;;;0.82;82.39
5691;BME280;2870;42.680;23.364;2023-01-26T07:24:54;95301.22;;;1.02;82.01
5691;BME280;2870;42.680;23.364;2023-01-26T07:27:21;95298.28;;;1.17;82.12
5691;BME280;2870;42.680;23.364;2023-01-26T07:29:47;95294.97;;;1.08;82.45
5691;BME280;2870;42.680;23.364;2023-01-26T07:32:15;95298.91;;;0.95;82.92
5691;BME280;2870;42.680;23.364;2023-01-26T07:34:42;95305.06;;;0.79;83.91
5691;BME280;2870;42.680;23.364;2023-01-26T07:37:09;95298.16;;;0.95;83.88
5691;BME280;2870;42.680;23.364;2023-01-26T07:39:35;95291.66;;;0.98;83.80
5691;BME280;2870;42.680;23.364;2023-01-26T07:42:04;95291.34;;;0.90;83.74
5691;BME280;2870;42.680;23.364;2023-01-26T07:44:31;95285.59;;;0.94;84.53
5691;BME280;2870;42.680;23.364;2023-01-26T07:46:58;95289.09;;;0.94;83.67
5691;BME280;2870;42.680;23.364;2023-01-26T07:49:25;95282.16;;;1.04;82.92
5691;BME280;2870;42.680;23.364;2023-01-26T07:51:51;95281.66;;;1.06;82.68
5691;BME280;2870;42.680;23.364;2023-01-26T07:54:18;95287.16;;;1.06;82.62
5691;BME280;2870;42.680;23.364;2023-01-26T07:56:50;95292.22;;;1.13;82.23
5691;BME280;2870;42.680;23.364;2023-01-26T07:59:18;95295.47;;;1.06;81.39
5691;BME280;2870;42.680;23.364;2023-01-26T08:01:47;95288.56;;;1.27;80.91
5691;BME280;2870;42.680;23.364;2023-01-26T08:04:14;95293.91;;;0.99;80.99
5691;BME280;2870;42.680;23.364;2023-01-26T08:06:41;95276.53;;;1.36;80.35
5691;BME280;2870;42.680;23.364;2023-01-26T08:09:08;95272.06;;;1.44;79.92
5691;BME280;2870;42.680;23.364;2023-01-26T08:11:35;95269.19;;;1.22;80.40
5691;BME280;2870;42.680;23.364;2023-01-26T08:14:02;95275.84;;;1.52;79.37
5691;BME280;2870;42.680;23.364;2023-01-26T08:16:30;95274.38;;;1.57;79.69
5691;BME280;2870;42.680;23.364;2023-01-26T08:18:57;95268.22;;;1.36;79.22
5691;BME280;2870;42.680;23.364;2023-01-26T08:21:24;95264.34;;;1.59;79.21
5691;BME280;2870;42.680;23.364;2023-01-26T08:23:51;95267.31;;;1.50;78.32
5691;BME280;2870;42.680;23.364;2023-01-26T08:26:18;95267.31;;;1.50;78.32
5691;BME280;2870;42.680;23.364;2023-01-26T08:28:46;95260.28;;;1.49;78.00
5691;BME280;2870;42.680;23.364;2023-01-26T08:31:15;95260.28;;;1.55;77.98
5691;BME280;2870;42.680;23.364;2023-01-26T08:33:46;95258.00;;;1.48;78.15
5691;BME280;2870;42.680;23.364;2023-01-26T08:36:15;95258.50;;;1.46;78.17
5691;BME280;2870;42.680;23.364;2023-01-26T08:38:43;95254.97;;;1.46;77.76
5691;BME280;2870;42.680;23.364;2023-01-26T08:41:11;95265.31;;;1.56;77.30
5691;BME280;2870;42.680;23.364;2023-01-26T08:43:38;95238.22;;;1.66;77.35
5691;BME280;2870;42.680;23.364;2023-01-26T08:46:05;95235.16;;;1.58;77.11
5691;BME280;2870;42.680;23.364;2023-01-26T08:48:32;95244.31;;;2.04;75.77
5691;BME280;2870;42.680;23.364;2023-01-26T08:51:02;95257.91;;;2.07;74.81
5691;BME280;2870;42.680;23.364;2023-01-26T08:53:30;95235.97;;;1.76;75.27
5691;BME280;2870;42.680;23.364;2023-01-26T08:56:00;95249.31;;;1.83;75.45
5691;BME280;2870;42.680;23.364;2023-01-26T08:58:26;95250.34;;;1.91;75.28
5691;BME280;2870;42.680;23.364;2023-01-26T09:00:54;95244.88;;;2.36;74.86
5691;BME280;2870;42.680;23.364;2023-01-26T09:03:21;95247.63;;;2.36;74.31
5691;BME280;2870;42.680;23.364;2023-01-26T09:05:48;95248.13;;;2.29;73.89
5691;BME280;2870;42.680;23.364;2023-01-26T09:08:16;95256.69;;;2.36;73.97
5691;BME280;2870;42.680;23.364;2023-01-26T09:10:43;95257.16;;;2.01;73.94
5691;BME280;2870;42.680;23.364;2023-01-26T09:13:10;95249.63;;;2.07;74.09
5691;BME280;2870;42.680;23.364;2023-01-26T09:15:37;95250.13;;;2.00;74.62
5691;BME280;2870;42.680;23.364;2023-01-26T09:18:04;95254.94;;;2.28;74.03
5691;BME280;2870;42.680;23.364;2023-01-26T09:20:31;95237.81;;;2.24;73.37
5691;BME280;2870;42.680;23.364;2023-01-26T09:22:58;95239.50;;;1.71;75.06
5691;BME280;2870;42.680;23.364;2023-01-26T09:25:26;95236.28;;;2.00;74.30
5691;BME280;2870;42.680;23.364;2023-01-26T09:27:52;95230.97;;;1.91;74.38
5691;BME280;2870;42.680;23.364;2023-01-26T09:30:19;95222.72;;;2.42;73.72
5691;BME280;2870;42.680;23.364;2023-01-26T09:32:46;95225.75;;;2.16;73.87
5691;BME280;2870;42.680;23.364;2023-01-26T09:35:13;95219.44;;;2.15;73.74
5691;BME280;2870;42.680;23.364;2023-01-26T09:37:41;95210.38;;;2.26;73.96
5691;BME280;2870;42.680;23.364;2023-01-26T09:40:15;95213.16;;;2.26;73.72
5691;BME280;2870;42.680;23.364;2023-01-26T09:42:53;95222.44;;;1.89;74.75
5691;BME280;2870;42.680;23.364;2023-01-26T09:45:29;95228.22;;;2.02;74.66
5691;BME280;2870;42.680;23.364;2023-01-26T09:48:14;95225.97;;;2.06;74.67
5691;BME280;2870;42.680;23.364;2023-01-26T09:50:47;95213.09;;;1.81;75.62
5691;BME280;2870;42.680;23.364;2023-01-26T09:53:19;95207.84;;;1.89;75.31
5691;BME280;2870;42.680;23.364;2023-01-26T09:55:49;95194.28;;;2.02;74.99
5691;BME280;2870;42.680;23.364;2023-01-26T09:58:27;95188.94;;;1.76;75.62
5691;BME280;2870;42.680;23.364;2023-01-26T10:00:59;95209.88;;;2.05;75.15
5691;BME280;2870;42.680;23.364;2023-01-26T10:03:31;95192.78;;;2.06;75.17
5691;BME280;2870;42.680;23.364;2023-01-26T10:06:04;95201.56;;;1.88;75.39
5691;BME280;2870;42.680;23.364;2023-01-26T10:08:33;95201.59;;;2.22;74.66
5691;BME280;2870;42.680;23.364;2023-01-26T10:11:02;95195.78;;;2.36;74.00
5691;BME280;2870;42.680;23.364;2023-01-26T10:13:33;95203.84;;;2.34;74.02
5691;BME280;2870;42.680;23.364;2023-01-26T10:16:02;95197.28;;;2.15;74.58
5691;BME280;2870;42.680;23.364;2023-01-26T10:18:34;95198.81;;;1.94;75.11
5691;BME280;2870;42.680;23.364;2023-01-26T10:21:04;95177.44;;;2.17;74.59
5691;BME280;2870;42.680;23.364;2023-01-26T10:23:33;95166.38;;;2.17;74.33
5691;BME280;2870;42.680;23.364;2023-01-26T10:26:10;95167.88;;;2.06;74.38
5691;BME280;2870;42.680;23.364;2023-01-26T10:28:40;95160.09;;;2.10;74.61
5691;BME280;2870;42.680;23.364;2023-01-26T10:31:13;95139.44;;;2.23;74.74
5691;BME280;2870;42.680;23.364;2023-01-26T10:33:44;95154.75;;;2.57;73.64
5691;BME280;2870;42.680;23.364;2023-01-26T10:36:14;95144.94;;;2.51;73.42
5691;BME280;2870;42.680;23.364;2023-01-26T10:38:42;95138.13;;;2.69;73.17
5691;BME280;2870;42.680;23.364;2023-01-26T10:41:27;95133.63;;;2.32;73.60
5691;BME280;2870;42.680;23.364;2023-01-26T10:43:57;95119.50;;;2.58;73.35
5691;BME280;2870;42.680;23.364;2023-01-26T10:46:27;95115.63;;;2.83;72.72
5691;BME280;2870;42.680;23.364;2023-01-26T10:48:56;95111.69;;;2.62;73.05
5691;BME280;2870;42.680;23.364;2023-01-26T10:51:26;95104.19;;;2.46;73.33
5691;BME280;2870;42.680;23.364;2023-01-26T10:54:14;95083.03;;;2.43;73.47
5691;BME280;2870;42.680;23.364;2023-01-26T10:56:46;95095.81;;;2.74;73.18
5691;BME280;2870;42.680;23.364;2023-01-26T10:59:23;95081.53;;;2.42;73.49
5691;BME280;2870;42.680;23.364;2023-01-26T11:01:52;95066.97;;;2.30;73.62
5691;BME280;2870;42.680;23.364;2023-01-26T11:04:19;95063.16;;;2.44;73.47
5691;BME280;2870;42.680;23.364;2023-01-26T11:06:46;95064.13;;;2.52;73.62
5691;BME280;2870;42.680;23.364;2023-01-26T11:09:18;95053.03;;;2.58;73.16
5691;BME280;2870;42.680;23.364;2023-01-26T11:12:00;95062.66;;;2.40;73.47
5691;BME280;2870;42.680;23.364;2023-01-26T11:14:29;95050.56;;;2.37;73.51
5691;BME280;2870;42.680;23.364;2023-01-26T11:17:08;95032.75;;;2.27;74.18
5691;BME280;2870;42.680;23.364;2023-01-26T11:19:54;95026.34;;;2.60;73.58
5691;BME280;2870;42.680;23.364;2023-01-26T11:22:30;95026.38;;;2.49;73.62
5691;BME280;2870;42.680;23.364;2023-01-26T11:25:10;95019.78;;;2.69;73.16
5691;BME280;2870;42.680;23.364;2023-01-26T11:27:46;95012.25;;;2.58;73.39
5691;BME280;2870;42.680;23.364;2023-01-26T11:33:18;94993.56;;;2.76;72.71
5691;BME280;2870;42.680;23.364;2023-01-26T11:35:51;95003.69;;;2.68;73.16
5691;BME280;2870;42.680;23.364;2023-01-26T11:38:33;94996.41;;;3.06;72.59
5691;BME280;2870;42.680;23.364;2023-01-26T11:41:25;94998.66;;;3.13;72.02
5691;BME280;2870;42.680;23.364;2023-01-26T11:44:10;94984.44;;;2.86;73.17
5691;BME280;2870;42.680;23.364;2023-01-26T11:46:53;94976.75;;;2.62;73.81
5691;BME280;2870;42.680;23.364;2023-01-26T11:49:53;94979.03;;;2.58;73.73
5691;BME280;2870;42.680;23.364;2023-01-26T11:52:30;94990.38;;;2.55;74.34
5691;BME280;2870;42.680;23.364;2023-01-26T11:55:15;94985.34;;;3.00;74.01
5691;BME280;2870;42.680;23.364;2023-01-26T11:57:51;94989.34;;;3.05;73.07
5691;BME280;2870;42.680;23.364;2023-01-26T12:00:36;95001.91;;;3.11;72.49
5691;BME280;2870;42.680;23.364;2023-01-26T12:03:14;94978.91;;;2.81;73.62
5691;BME280;2870;42.680;23.364;2023-01-26T12:05:45;94973.63;;;2.83;73.66
5691;BME280;2870;42.680;23.364;2023-01-26T12:08:18;94972.75;;;2.99;73.61
5691;BME280;2870;42.680;23.364;2023-01-26T12:10:49;94974.22;;;3.06;73.27
5691;BME280;2870;42.680;23.364;2023-01-26T12:13:28;94964.69;;;2.54;74.70
5691;BME280;2870;42.680;23.364;2023-01-26T12:15:59;94970.53;;;2.92;74.47
5691;BME280;2870;42.680;23.364;2023-01-26T12:18:33;94952.13;;;2.95;74.12
5691;BME280;2870;42.680;23.364;2023-01-26T12:21:04;94949.66;;;2.91;74.46
5691;BME280;2870;42.680;23.364;2023-01-26T12:23:35;94938.75;;;2.57;75.31
5691;BME280;2870;42.680;23.364;2023-01-26T12:26:11;94932.75;;;2.48;76.26
5691;BME280;2870;42.680;23.364;2023-01-26T12:28:42;94923.63;;;2.64;75.82
5691;BME280;2870;42.680;23.364;2023-01-26T12:31:15;94924.84;;;2.69;76.01
5691;BME280;2870;42.680;23.364;2023-01-26T12:33:45;94925.09;;;2.71;76.18
5691;BME280;2870;42.680;23.364;2023-01-26T12:36:34;94929.47;;;2.96;75.70
5691;BME280;2870;42.680;23.364;2023-01-26T12:39:11;94920.00;;;2.80;75.99
5691;BME280;2870;42.680;23.364;2023-01-26T12:42:00;94915.84;;;2.98;75.83
5691;BME280;2870;42.680;23.364;2023-01-26T12:44:35;94913.75;;;2.74;76.18
5691;BME280;2870;42.680;23.364;2023-01-26T12:47:10;94902.00;;;2.62;76.79
5691;BME280;2870;42.680;23.364;2023-01-26T12:49:45;94914.19;;;2.84;76.29
5691;BME280;2870;42.680;23.364;2023-01-26T12:52:17;94922.06;;;2.74;76.90
5691;BME280;2870;42.680;23.364;2023-01-26T12:54:52;94914.13;;;2.48;77.38
5691;BME280;2870;42.680;23.364;2023-01-26T12:57:23;94907.19;;;2.72;77.27
5691;BME280;2870;42.680;23.364;2023-01-26T12:59:51;94906.78;;;2.62;77.41
5691;BME280;2870;42.680;23.364;2023-01-26T13:02:27;94906.31;;;2.52;78.02
5691;BME280;2870;42.680;23.364;2023-01-26T13:04:57;94897.34;;;2.35;78.51
5691;BME280;2870;42.680;23.364;2023-01-26T13:07:31;94895.53;;;2.43;78.83
5691;BME280;2870;42.680;23.364;2023-01-26T13:10:19;94905.72;;;2.24;79.37
5691;BME280;2870;42.680;23.364;2023-01-26T13:12:49;94898.50;;;2.56;78.87
5691;BME280;2870;42.680;23.364;2023-01-26T13:15:17;94904.28;;;2.58;78.65
5691;BME280;2870;42.680;23.364;2023-01-26T13:17:53;94899.09;;;2.38;79.98
5691;BME280;2870;42.680;23.364;2023-01-26T13:20:42;94910.34;;;2.51;79.50
5691;BME280;2870;42.680;23.364;2023-01-26T13:26:24;94896.28;;;2.44;80.37
5691;BME280;2870;42.680;23.364;2023-01-26T13:29:28;94895.06;;;2.39;80.65
5691;BME280;2870;42.680;23.364;2023-01-26T13:31:58;94884.84;;;2.64;79.94
5691;BME280;2870;42.680;23.364;2023-01-26T13:34:28;94881.81;;;2.68;79.63
5691;BME280;2870;42.680;23.364;2023-01-26T13:37:04;94888.09;;;2.68;79.31
5691;BME280;2870;42.680;23.364;2023-01-26T13:39:35;94882.44;;;2.44;80.22
5691;BME280;2870;42.680;23.364;2023-01-26T13:42:15;94884.34;;;2.65;80.25
5691;BME280;2870;42.680;23.364;2023-01-26T13:44:48;94875.94;;;2.41;80.43
5691;BME280;2870;42.680;23.364;2023-01-26T13:47:19;94856.97;;;2.09;81.03
5691;BME280;2870;42.680;23.364;2023-01-26T13:49:49;94870.13;;;2.45;80.84